ビリニュス の空港の天気 - METARとTAF

ビリニュス国際空港 ( EYVI / VNO ) - リトアニア ビリニュス
飛行場実況気象(Metar)
観測時間02/05 22:20 EET (02/05 20:20 UTC)
風向・風速不定 1m/s
視程10km以上
天気現象
少しの雲 雲底高度 430m
気温-7℃
湿度86%
気圧1035hPa
METAREYVI 052020Z VRB02KT 9999 FEW014 M07/M09 Q1035 NOSIG
過去の天気等 Google飛行場航空写真 Wunderground天気予報

過去48時間のMETAR

飛行場予報(TAF)
発表時間: 2/05 19:00 EET (2/05 17:00 UTC)
予報対象時間: 5日20時 EET ~ 6日20時 EET
風向・風速不定 3m/s
視程5000m
天気現象もや
全天の4割程度の雲 雲底高度 150m
全天の8割程度の雲 雲底高度 460m
5日20時 EET ~ 6日2時 EET に一時的に
全天の4割程度の雲 雲底高度 610m
6日6時 EET ~ 6日8時 EET に徐々に
視程9000m
天気現象運行に影響にある天気現象が終了
全天の8割程度の雲 雲底高度 300m
全天を覆う雲 雲底高度 460m
6日9時 EET ~ 6日15時 EET に一時的に
視程3000m
天気現象雪 もや
全天を覆う雲 雲底高度 150m
6日15時 EET ~ 6日20時 EET に一時的に
視程5000m
天気現象雪 もや
全天の8割程度の雲 雲底高度 150m
TAF EYVI 051700Z 0518/0618 VRB05KT 5000 BR SCT005 BKN015
TEMPO 0518/0524 SCT020
BECMG 0604/0606 9000 NSW BKN010 OVC015
TEMPO 0607/0613 3000 SN BR OVC005
TEMPO 0613/0618 5000 SN BR BKN005